createdAt,value
2018-07-25T00:01:56.936Z,26.48
2018-07-25T00:04:25.153Z,26.45
2018-07-25T00:06:53.370Z,26.48
2018-07-25T00:09:21.608Z,26.47
2018-07-25T00:11:49.828Z,26.47
2018-07-25T00:14:18.024Z,26.42
2018-07-25T00:16:46.216Z,26.45
2018-07-25T00:19:14.421Z,26.43
2018-07-25T00:21:42.624Z,26.39
2018-07-25T00:24:10.828Z,26.35
2018-07-25T00:26:39.053Z,26.33
2018-07-25T00:29:07.310Z,26.30
2018-07-25T00:31:35.543Z,26.25
2018-07-25T00:34:03.805Z,26.23
2018-07-25T00:36:32.073Z,26.20
2018-07-25T00:39:00.273Z,26.17
2018-07-25T00:41:28.480Z,26.15
2018-07-25T00:43:56.708Z,26.14
2018-07-25T00:46:24.936Z,26.13
2018-07-25T00:48:53.160Z,26.12
2018-07-25T00:51:21.361Z,26.11
2018-07-25T00:53:49.579Z,26.08
2018-07-25T00:56:17.785Z,26.04
2018-07-25T00:58:45.996Z,25.98
2018-07-25T01:01:14.224Z,25.86
2018-07-25T01:03:42.433Z,25.89
2018-07-25T01:06:10.652Z,25.86
2018-07-25T01:08:38.865Z,25.83
2018-07-25T01:11:07.073Z,25.81
2018-07-25T01:13:35.693Z,25.81
2018-07-25T01:16:03.961Z,25.81
2018-07-25T01:18:32.170Z,25.80
2018-07-25T01:21:00.369Z,25.79
2018-07-25T01:23:28.580Z,25.77
2018-07-25T01:25:56.848Z,25.76
2018-07-25T01:28:25.060Z,25.75
2018-07-25T01:30:53.284Z,25.74
2018-07-25T01:33:21.492Z,25.70
2018-07-25T01:35:49.752Z,25.62
2018-07-25T01:38:17.982Z,25.66
2018-07-25T01:40:46.228Z,25.65
2018-07-25T01:43:14.470Z,25.63
2018-07-25T01:45:42.688Z,25.58
2018-07-25T01:48:10.952Z,25.55
2018-07-25T01:50:39.188Z,25.52
2018-07-25T01:53:07.411Z,25.44
2018-07-25T01:55:35.616Z,25.45
2018-07-25T01:58:03.848Z,25.37
2018-07-25T02:00:32.083Z,25.38
2018-07-25T02:03:00.300Z,25.35
2018-07-25T02:05:28.510Z,25.35
2018-07-25T02:07:56.713Z,25.36
2018-07-25T02:10:24.936Z,25.34
2018-07-25T02:12:53.158Z,25.31
2018-07-25T02:15:21.387Z,25.29
2018-07-25T02:17:49.609Z,25.29
2018-07-25T02:20:17.848Z,25.27
2018-07-25T02:22:46.050Z,25.23
2018-07-25T02:25:14.268Z,25.20
2018-07-25T02:27:42.473Z,25.23
2018-07-25T02:30:10.689Z,25.24
2018-07-25T02:32:38.961Z,25.23
2018-07-25T02:35:07.172Z,25.20
2018-07-25T02:37:35.452Z,25.14
2018-07-25T02:40:03.790Z,25.06
2018-07-25T02:42:32.196Z,25.03
2018-07-25T02:45:00.342Z,25.06
2018-07-25T02:47:28.577Z,25.07
2018-07-25T02:49:56.801Z,25.07
2018-07-25T02:52:25.045Z,25.10
2018-07-25T02:54:53.272Z,25.09
2018-07-25T02:57:21.501Z,25.09
2018-07-25T02:59:49.758Z,25.09
2018-07-25T03:02:17.980Z,25.10
2018-07-25T03:04:46.206Z,25.05
2018-07-25T03:07:14.434Z,24.99
2018-07-25T03:09:42.636Z,24.90
2018-07-25T03:12:10.847Z,24.85
2018-07-25T03:14:39.107Z,24.80
2018-07-25T03:17:07.644Z,24.82
2018-07-25T03:19:35.984Z,24.84
2018-07-25T03:22:04.225Z,24.85
2018-07-25T03:24:32.468Z,24.81
2018-07-25T03:27:00.708Z,24.78
2018-07-25T03:29:28.921Z,24.78
2018-07-25T03:31:57.148Z,24.79
2018-07-25T03:34:25.344Z,24.75
2018-07-25T03:36:53.601Z,24.71
2018-07-25T03:39:22.261Z,24.71
2018-07-25T03:41:50.496Z,24.65
2018-07-25T03:44:18.720Z,24.60
2018-07-25T03:46:46.936Z,24.54
2018-07-25T03:49:15.137Z,24.53
2018-07-25T03:51:43.346Z,24.57
2018-07-25T03:54:11.568Z,24.57
2018-07-25T03:56:39.796Z,24.56
2018-07-25T03:59:08.020Z,24.52
2018-07-25T04:01:36.248Z,24.51
2018-07-25T04:04:05.196Z,24.53
2018-07-25T04:06:33.488Z,24.48
2018-07-25T04:09:01.706Z,24.45
2018-07-25T04:11:29.936Z,24.45
2018-07-25T04:13:58.152Z,24.43
2018-07-25T04:16:26.361Z,24.39
2018-07-25T04:18:54.573Z,24.39
2018-07-25T04:21:22.804Z,24.43
2018-07-25T04:23:51.049Z,24.45
2018-07-25T04:26:19.252Z,24.39
2018-07-25T04:28:47.475Z,24.48
2018-07-25T04:31:15.700Z,24.48
2018-07-25T04:33:43.928Z,24.48
2018-07-25T04:36:12.188Z,24.50
2018-07-25T04:38:40.400Z,24.51
2018-07-25T04:41:08.640Z,24.53
2018-07-25T04:43:36.843Z,24.53
2018-07-25T04:46:05.150Z,24.51
2018-07-25T04:48:33.384Z,24.51
2018-07-25T04:51:01.616Z,24.50
2018-07-25T04:53:29.824Z,24.50
2018-07-25T04:55:58.248Z,24.51
2018-07-25T04:58:27.608Z,24.52
2018-07-25T05:00:56.316Z,24.53
2018-07-25T05:03:24.520Z,24.55
2018-07-25T05:05:52.741Z,24.58
2018-07-25T05:08:20.951Z,24.58
2018-07-25T05:10:49.173Z,24.57
2018-07-25T05:13:17.388Z,24.57
2018-07-25T05:15:45.620Z,24.57
2018-07-25T05:18:13.887Z,24.55
2018-07-25T05:20:42.102Z,24.58
2018-07-25T05:23:10.341Z,24.55
2018-07-25T05:25:38.555Z,24.53
2018-07-25T05:28:06.796Z,24.52
2018-07-25T05:30:36.304Z,24.51
2018-07-25T05:33:04.589Z,24.51
2018-07-25T05:35:32.808Z,24.45
2018-07-25T05:38:01.035Z,24.36
2018-07-25T05:40:29.252Z,24.27
2018-07-25T05:42:57.512Z,24.24
2018-07-25T05:45:25.798Z,24.20
2018-07-25T05:47:54.076Z,24.17
2018-07-25T05:50:22.289Z,24.14
2018-07-25T05:52:50.512Z,24.13
2018-07-25T05:55:18.736Z,24.12
2018-07-25T05:57:46.970Z,24.16
2018-07-25T06:00:15.195Z,24.19
2018-07-25T06:02:43.415Z,24.21
2018-07-25T06:05:11.649Z,24.24
2018-07-25T06:07:39.880Z,24.29
2018-07-25T06:10:08.162Z,24.31
2018-07-25T06:12:36.376Z,24.34
2018-07-25T06:15:05.360Z,24.36
2018-07-25T06:17:33.604Z,24.39
2018-07-25T06:20:01.828Z,24.38
2018-07-25T06:22:30.038Z,24.39
2018-07-25T06:24:58.310Z,24.38
2018-07-25T06:27:26.513Z,24.38
2018-07-25T06:29:54.720Z,24.29
2018-07-25T06:32:22.936Z,24.35
2018-07-25T06:34:51.201Z,24.32
2018-07-25T06:37:19.409Z,24.34
2018-07-25T06:39:47.620Z,24.35
2018-07-25T06:42:15.854Z,24.36
2018-07-25T06:44:44.072Z,24.36
2018-07-25T06:47:12.396Z,24.39
2018-07-25T06:49:40.609Z,24.40
2018-07-25T06:52:08.848Z,24.42
2018-07-25T06:54:37.092Z,24.44
2018-07-25T06:57:05.672Z,24.47
2018-07-25T06:59:33.904Z,24.48
2018-07-25T07:02:02.249Z,24.50
2018-07-25T07:04:30.452Z,24.49
2018-07-25T07:06:58.719Z,24.53
2018-07-25T07:09:26.902Z,24.57
2018-07-25T07:11:55.168Z,24.60
2018-07-25T07:14:23.440Z,24.58
2018-07-25T07:16:51.672Z,24.58
2018-07-25T07:19:19.892Z,24.58
2018-07-25T07:21:48.140Z,24.60
2018-07-25T07:24:16.397Z,24.61
2018-07-25T07:26:44.628Z,24.65
2018-07-25T07:29:12.878Z,24.69
2018-07-25T07:31:41.141Z,24.73
2018-07-25T07:34:09.369Z,24.79
2018-07-25T07:36:37.609Z,24.84
2018-07-25T07:39:09.448Z,24.88
2018-07-25T07:41:37.705Z,24.92
2018-07-25T07:44:06.343Z,24.97
2018-07-25T07:46:34.604Z,25.05
2018-07-25T07:49:02.856Z,25.03
2018-07-25T07:51:31.201Z,25.15
2018-07-25T07:53:59.468Z,25.20
2018-07-25T07:56:27.717Z,25.28
2018-07-25T07:58:56.169Z,25.33
2018-07-25T08:01:24.396Z,25.36
2018-07-25T08:03:52.620Z,25.41
2018-07-25T08:06:20.836Z,25.47
2018-07-25T08:08:49.098Z,25.49
2018-07-25T08:11:19.564Z,25.53
2018-07-25T08:13:48.906Z,25.55
2018-07-25T08:16:17.564Z,25.58
2018-07-25T08:18:45.792Z,25.64
2018-07-25T08:21:14.555Z,25.66
2018-07-25T08:23:43.696Z,25.69
2018-07-25T08:26:11.996Z,25.72
2018-07-25T08:28:40.228Z,25.77
2018-07-25T08:31:08.748Z,25.78
2018-07-25T08:33:36.957Z,25.82
2018-07-25T08:36:05.235Z,25.88
2018-07-25T08:38:37.800Z,25.92
2018-07-25T08:41:06.475Z,25.97
2018-07-25T08:43:35.805Z,26.04
2018-07-25T08:46:04.136Z,26.06
2018-07-25T08:48:32.596Z,26.09
2018-07-25T08:51:01.008Z,26.08
2018-07-25T08:53:29.718Z,26.15
2018-07-25T08:55:57.937Z,26.19
2018-07-25T08:58:26.228Z,26.24
2018-07-25T09:00:54.473Z,26.20
2018-07-25T09:03:22.832Z,26.32
2018-07-25T09:05:51.108Z,26.38
2018-07-25T09:08:19.336Z,26.40
2018-07-25T09:10:47.533Z,26.42
2018-07-25T09:13:15.777Z,26.47
2018-07-25T09:15:44.284Z,26.50
2018-07-25T09:18:12.615Z,26.54
2018-07-25T09:20:40.873Z,26.60
2018-07-25T09:23:09.092Z,26.67
2018-07-25T09:25:37.327Z,26.71
2018-07-25T09:28:05.836Z,26.74
2018-07-25T09:30:34.125Z,26.77
2018-07-25T09:33:02.376Z,26.82
2018-07-25T09:35:30.629Z,26.85
2018-07-25T09:37:58.904Z,26.90
2018-07-25T09:40:27.161Z,26.99
2018-07-25T09:42:55.400Z,27.05
2018-07-25T09:45:23.673Z,27.06
2018-07-25T09:47:51.906Z,27.04
2018-07-25T09:50:20.097Z,27.16
2018-07-25T09:52:48.332Z,27.20
2018-07-25T09:55:16.601Z,27.25
2018-07-25T09:57:44.866Z,27.33
2018-07-25T10:00:17.258Z,27.38
2018-07-25T10:02:45.432Z,27.42
2018-07-25T10:05:13.668Z,27.49
2018-07-25T10:07:42.045Z,27.53
2018-07-25T10:10:10.189Z,27.59
2018-07-25T10:12:38.387Z,27.61
2018-07-25T10:15:06.716Z,27.68
2018-07-25T10:17:34.826Z,27.79
2018-07-25T10:20:03.059Z,27.86
2018-07-25T10:22:31.278Z,27.95
2018-07-25T10:24:59.733Z,28.00
2018-07-25T10:27:28.019Z,28.09
2018-07-25T10:29:56.216Z,28.15
2018-07-25T10:32:24.408Z,28.23
2018-07-25T10:34:52.624Z,28.31
2018-07-25T10:37:20.856Z,28.42
2018-07-25T10:39:49.058Z,28.50
2018-07-25T10:42:17.280Z,28.60
2018-07-25T10:44:45.488Z,28.76
2018-07-25T10:47:13.704Z,28.94
2018-07-25T10:49:41.920Z,29.15
2018-07-25T10:52:10.180Z,29.41
2018-07-25T10:54:38.396Z,29.67
2018-07-25T10:57:06.831Z,29.95
2018-07-25T10:59:35.098Z,30.20
2018-07-25T11:02:03.416Z,30.39
2018-07-25T11:04:31.629Z,30.63
2018-07-25T11:06:59.826Z,30.86
2018-07-25T11:09:28.067Z,31.10
2018-07-25T11:11:56.267Z,31.30
2018-07-25T11:14:24.484Z,31.46
2018-07-25T11:16:52.697Z,31.56
2018-07-25T11:19:20.944Z,31.72
2018-07-25T11:21:49.168Z,31.83
2018-07-25T11:24:17.376Z,31.90
2018-07-25T11:26:45.628Z,32.00
2018-07-25T11:29:13.901Z,32.10
2018-07-25T11:31:42.176Z,32.22
2018-07-25T11:34:10.385Z,32.29
2018-07-25T11:36:38.607Z,32.37
2018-07-25T11:39:09.512Z,32.49
2018-07-25T11:41:37.800Z,32.56
2018-07-25T11:44:06.107Z,32.65
2018-07-25T11:46:34.413Z,32.84
2018-07-25T11:49:02.729Z,32.99
2018-07-25T11:51:30.965Z,33.10
2018-07-25T11:53:59.917Z,33.28
2018-07-25T11:56:28.101Z,33.44
2018-07-25T11:58:56.304Z,33.53
2018-07-25T12:01:24.511Z,33.61
2018-07-25T12:03:52.724Z,33.68
2018-07-25T12:06:20.945Z,33.79
2018-07-25T12:08:49.159Z,33.89
2018-07-25T12:11:17.361Z,34.04
2018-07-25T12:13:45.612Z,34.13
2018-07-25T12:16:13.816Z,34.26
2018-07-25T12:18:42.024Z,34.39
2018-07-25T12:21:10.479Z,34.55
2018-07-25T12:23:38.652Z,34.76
2018-07-25T12:26:06.888Z,34.90
2018-07-25T12:28:35.080Z,35.04
2018-07-25T12:31:03.298Z,35.18
2018-07-25T12:33:31.494Z,35.27
2018-07-25T12:35:59.744Z,35.26
2018-07-25T12:38:27.960Z,35.31
2018-07-25T12:40:56.715Z,35.44
2018-07-25T12:43:24.917Z,35.50
2018-07-25T12:45:53.160Z,35.51
2018-07-25T12:48:21.528Z,35.61
2018-07-25T12:50:49.752Z,35.73
2018-07-25T12:53:18.039Z,35.79
2018-07-25T12:55:46.293Z,35.85
2018-07-25T12:58:14.561Z,35.82
2018-07-25T13:00:42.756Z,35.73
2018-07-25T13:03:10.964Z,35.75
2018-07-25T13:05:39.188Z,35.68
2018-07-25T13:08:07.404Z,35.72
2018-07-25T13:10:35.670Z,35.78
2018-07-25T13:13:03.822Z,35.90
2018-07-25T13:15:32.085Z,35.96
2018-07-25T13:18:00.288Z,35.91
2018-07-25T13:20:28.516Z,35.90
2018-07-25T13:22:56.806Z,35.81
2018-07-25T13:25:25.000Z,35.65
2018-07-25T13:27:53.396Z,35.34
2018-07-25T13:30:21.600Z,35.07
2018-07-25T13:32:49.808Z,34.84
2018-07-25T13:35:18.040Z,34.59
2018-07-25T13:37:46.300Z,34.52
2018-07-25T13:40:14.525Z,34.66
2018-07-25T13:42:42.783Z,34.82
2018-07-25T13:45:11.009Z,34.98
2018-07-25T13:47:39.250Z,34.72
2018-07-25T13:50:07.484Z,34.45
2018-07-25T13:52:35.680Z,34.41
2018-07-25T13:55:03.958Z,34.57
2018-07-25T13:57:32.203Z,34.80
2018-07-25T14:00:00.409Z,35.09
2018-07-25T14:02:28.712Z,35.29
2018-07-25T14:04:56.921Z,35.34
2018-07-25T14:07:25.128Z,35.34
2018-07-25T14:09:53.369Z,35.43
2018-07-25T14:12:21.593Z,35.54
2018-07-25T14:14:49.798Z,35.63
2018-07-25T14:17:18.020Z,35.55
2018-07-25T14:19:46.246Z,35.56
2018-07-25T14:22:14.465Z,35.63
2018-07-25T14:24:42.791Z,35.60
2018-07-25T14:27:11.026Z,35.67
2018-07-25T14:29:39.220Z,35.66
2018-07-25T14:32:07.788Z,35.58
2018-07-25T14:34:36.063Z,35.58
2018-07-25T14:37:04.391Z,35.55
2018-07-25T14:39:32.598Z,35.60
2018-07-25T14:42:00.808Z,35.51
2018-07-25T14:44:29.042Z,35.30
2018-07-25T14:46:57.338Z,35.06
2018-07-25T14:49:25.484Z,34.93
2018-07-25T14:51:53.771Z,34.72
2018-07-25T14:54:22.015Z,34.51
2018-07-25T14:56:50.234Z,34.30
2018-07-25T14:59:18.656Z,34.11
2018-07-25T15:01:46.872Z,33.97
2018-07-25T15:04:15.073Z,33.86
2018-07-25T15:06:43.302Z,33.80
2018-07-25T15:09:12.030Z,33.81
2018-07-25T15:11:40.508Z,33.85
2018-07-25T15:14:09.187Z,33.82
2018-07-25T15:16:37.444Z,33.88
2018-07-25T15:19:05.752Z,33.98
2018-07-25T15:21:33.997Z,34.09
2018-07-25T15:24:04.517Z,34.19
2018-07-25T15:26:32.808Z,34.31
2018-07-25T15:29:01.652Z,34.46
2018-07-25T15:31:29.937Z,34.63
2018-07-25T15:33:58.176Z,34.86
2018-07-25T15:36:39.874Z,35.18
2018-07-25T15:39:11.872Z,35.53
2018-07-25T15:41:40.148Z,35.73
2018-07-25T15:44:08.372Z,35.72
2018-07-25T15:46:36.607Z,35.53
2018-07-25T15:49:05.267Z,35.36
2018-07-25T15:51:33.524Z,35.23
2018-07-25T15:54:02.008Z,35.11
2018-07-25T15:56:30.256Z,35.03
2018-07-25T15:58:58.464Z,34.87
2018-07-25T16:01:26.712Z,34.73
2018-07-25T16:03:54.939Z,34.60
2018-07-25T16:06:23.750Z,34.56
2018-07-25T16:08:52.248Z,34.55
2018-07-25T16:11:20.470Z,34.37
2018-07-25T16:13:48.848Z,34.19
2018-07-25T16:16:17.637Z,34.00
2018-07-25T16:18:46.126Z,33.88
2018-07-25T16:21:14.344Z,33.78
2018-07-25T16:23:42.621Z,33.68
2018-07-25T16:26:10.856Z,33.59
2018-07-25T16:28:39.138Z,33.56
2018-07-25T16:31:07.761Z,33.52
2018-07-25T16:33:36.185Z,33.57
2018-07-25T16:36:04.445Z,33.72
2018-07-25T16:38:32.620Z,33.91
2018-07-25T16:41:00.853Z,33.93
2018-07-25T16:43:29.084Z,33.79
2018-07-25T16:45:57.308Z,33.60
2018-07-25T16:48:25.513Z,33.49
2018-07-25T16:50:53.753Z,33.46
2018-07-25T16:53:21.960Z,33.41
2018-07-25T16:55:50.173Z,33.33
2018-07-25T16:58:18.409Z,33.24
2018-07-25T17:00:46.604Z,33.17
2018-07-25T17:03:15.210Z,33.18
2018-07-25T17:05:43.444Z,33.42
2018-07-25T17:08:11.649Z,33.66
2018-07-25T17:10:39.869Z,33.75
2018-07-25T17:13:08.072Z,33.72
2018-07-25T17:15:36.283Z,33.61
2018-07-25T17:18:04.524Z,33.43
2018-07-25T17:20:32.832Z,33.18
2018-07-25T17:23:00.965Z,33.00
2018-07-25T17:25:29.192Z,32.87
2018-07-25T17:27:57.419Z,32.82
2018-07-25T17:30:25.624Z,32.87
2018-07-25T17:32:53.840Z,32.96
2018-07-25T17:35:22.095Z,33.03
2018-07-25T17:37:50.484Z,33.06
2018-07-25T17:40:18.708Z,33.10
2018-07-25T17:42:46.940Z,33.14
2018-07-25T17:45:15.181Z,33.08
2018-07-25T17:47:43.394Z,32.99
2018-07-25T17:50:11.617Z,32.83
2018-07-25T17:52:40.289Z,32.60
2018-07-25T17:55:08.775Z,32.41
2018-07-25T17:57:36.968Z,32.25
2018-07-25T18:00:07.814Z,32.13
2018-07-25T18:02:36.073Z,31.99
2018-07-25T18:05:04.307Z,31.91
2018-07-25T18:07:32.536Z,31.83
2018-07-25T18:10:00.768Z,31.73
2018-07-25T18:12:28.980Z,31.70
2018-07-25T18:14:57.220Z,31.67
2018-07-25T18:17:25.459Z,31.64
2018-07-25T18:19:53.662Z,31.56
2018-07-25T18:22:21.888Z,31.53
2018-07-25T18:24:50.104Z,31.50
2018-07-25T18:27:18.332Z,31.45
2018-07-25T18:29:46.552Z,31.36
2018-07-25T18:32:14.790Z,31.29
2018-07-25T18:34:43.024Z,31.24
2018-07-25T18:37:11.256Z,31.19
2018-07-25T18:39:39.672Z,31.13
2018-07-25T18:42:08.377Z,31.07
2018-07-25T18:44:36.689Z,31.01
2018-07-25T18:47:05.064Z,30.94
2018-07-25T18:49:33.297Z,30.88
2018-07-25T18:52:01.538Z,30.82
2018-07-25T18:54:29.807Z,30.75
2018-07-25T18:56:58.043Z,30.69
2018-07-25T18:59:26.254Z,30.64
2018-07-25T19:01:54.527Z,30.57
2018-07-25T19:04:22.744Z,30.50
2018-07-25T19:06:50.997Z,30.46
2018-07-25T19:09:19.268Z,30.43
2018-07-25T19:11:47.712Z,30.38
2018-07-25T19:14:21.163Z,30.36
2018-07-25T19:16:49.402Z,30.33
2018-07-25T19:19:17.616Z,30.30
2018-07-25T19:21:45.860Z,30.27
2018-07-25T19:24:14.069Z,30.24
2018-07-25T19:26:42.305Z,30.20
2018-07-25T19:29:10.556Z,30.16
2018-07-25T19:31:38.768Z,30.12
2018-07-25T19:34:07.003Z,30.09
2018-07-25T19:36:35.213Z,30.06
2018-07-25T19:39:05.107Z,30.01
2018-07-25T19:41:33.312Z,29.99
2018-07-25T19:44:01.537Z,29.95
2018-07-25T19:46:29.765Z,29.94
2018-07-25T19:48:58.031Z,29.92
2018-07-25T19:51:26.277Z,29.87
2018-07-25T19:53:54.653Z,29.83
2018-07-25T19:56:22.889Z,29.79
2018-07-25T19:58:51.168Z,29.76
2018-07-25T20:01:19.385Z,29.71
2018-07-25T20:03:47.624Z,29.66
2018-07-25T20:06:15.873Z,29.63
2018-07-25T20:08:44.095Z,29.61
2018-07-25T20:11:12.348Z,29.57
2018-07-25T20:13:45.956Z,29.53
2018-07-25T20:16:14.168Z,29.49
2018-07-25T20:18:42.423Z,29.45
2018-07-25T20:21:10.653Z,29.42
2018-07-25T20:23:38.876Z,29.38
2018-07-25T20:26:07.108Z,29.34
2018-07-25T20:28:35.305Z,29.32
2018-07-25T20:31:03.508Z,29.27
2018-07-25T20:33:31.724Z,29.25
2018-07-25T20:35:59.973Z,29.23
2018-07-25T20:38:28.168Z,29.20
2018-07-25T20:40:56.469Z,29.16
2018-07-25T20:43:24.691Z,29.14
2018-07-25T20:45:52.928Z,29.10
2018-07-25T20:48:21.188Z,29.07
2018-07-25T20:50:49.349Z,29.03
2018-07-25T20:53:17.584Z,28.97
2018-07-25T20:55:45.807Z,28.92
2018-07-25T20:58:14.025Z,28.86
2018-07-25T21:00:42.302Z,28.79
2018-07-25T21:03:10.508Z,28.76
2018-07-25T21:05:38.728Z,28.72
2018-07-25T21:08:06.998Z,28.70
2018-07-25T21:10:35.253Z,28.68
2018-07-25T21:13:03.557Z,28.65
2018-07-25T21:15:31.780Z,28.65
2018-07-25T21:18:00.041Z,28.64
2018-07-25T21:20:28.271Z,28.62
2018-07-25T21:22:56.557Z,28.56
2018-07-25T21:25:24.793Z,28.52
2018-07-25T21:27:53.020Z,28.50
2018-07-25T21:30:21.268Z,28.48
2018-07-25T21:32:49.469Z,28.45
2018-07-25T21:35:17.660Z,28.42
2018-07-25T21:37:45.893Z,28.39
2018-07-25T21:40:14.137Z,28.38
2018-07-25T21:42:42.421Z,28.37
2018-07-25T21:45:10.642Z,28.36
2018-07-25T21:47:38.888Z,28.34
2018-07-25T21:50:07.164Z,28.31
2018-07-25T21:52:35.420Z,28.28
2018-07-25T21:55:03.747Z,28.24
2018-07-25T21:57:31.956Z,28.16
2018-07-25T22:00:00.211Z,28.13
2018-07-25T22:02:28.412Z,28.12
2018-07-25T22:04:56.636Z,28.10
2018-07-25T22:07:24.841Z,28.07
2018-07-25T22:09:53.084Z,28.06
2018-07-25T22:12:21.317Z,28.04
2018-07-25T22:14:49.594Z,28.01
2018-07-25T22:17:17.801Z,28.00
2018-07-25T22:19:46.069Z,27.98
2018-07-25T22:22:14.284Z,27.96
2018-07-25T22:24:42.504Z,27.93
2018-07-25T22:27:10.722Z,27.91
2018-07-25T22:29:38.928Z,27.90
2018-07-25T22:32:07.222Z,27.83
2018-07-25T22:34:35.414Z,27.86
2018-07-25T22:37:03.683Z,27.79
2018-07-25T22:39:31.980Z,27.78
2018-07-25T22:42:00.228Z,27.73
2018-07-25T22:44:28.457Z,27.66
2018-07-25T22:46:56.680Z,27.59
2018-07-25T22:49:24.908Z,27.55
2018-07-25T22:51:53.129Z,27.53
2018-07-25T22:54:21.408Z,27.48
2018-07-25T22:56:49.724Z,27.44
2018-07-25T22:59:17.936Z,27.39
2018-07-25T23:01:46.144Z,27.38
2018-07-25T23:04:14.378Z,27.36
2018-07-25T23:06:42.648Z,27.31
2018-07-25T23:09:11.788Z,27.25
2018-07-25T23:11:40.376Z,27.21
2018-07-25T23:14:08.617Z,27.18
2018-07-25T23:16:36.832Z,27.14
2018-07-25T23:19:05.060Z,27.12
2018-07-25T23:21:33.268Z,27.11
2018-07-25T23:24:01.586Z,27.08
2018-07-25T23:26:29.824Z,26.98
2018-07-25T23:28:58.021Z,26.99
2018-07-25T23:31:26.253Z,26.95
2018-07-25T23:33:54.451Z,26.92
2018-07-25T23:36:22.684Z,26.89
2018-07-25T23:38:50.892Z,26.85
2018-07-25T23:41:19.109Z,26.83
2018-07-25T23:43:47.368Z,26.77
2018-07-25T23:46:15.556Z,26.68
2018-07-25T23:48:43.789Z,26.68
2018-07-25T23:51:12.024Z,26.66
2018-07-25T23:53:40.248Z,26.59
2018-07-25T23:56:08.508Z,26.64
2018-07-25T23:58:36.740Z,26.61
